Time;durP1;ratioP1;P1;durP2;ratioP2;P2;SDS_P1;SDS_P2;PMS_P1;PMS_P2;Temp;Humidity;BMP_temperature;BMP_pressure;BME280_temperature;BME280_humidity;BME280_pressure;Samples;Min_cycle;Max_cycle;Signal;HPM_P1;HPM_P2
2021/03/29 00:01:04;;;;;;;10.42;5.37;;;;;;;7.60;69.79;100062.03;332470;110;2231475;-71
2021/03/29 00:02:10;;;;;;;9.64;5.77;;;;;;;7.68;69.42;100068.19;363839;110;1961999;-72
2021/03/29 00:03:16;;;;;;;9.61;5.97;;;;;;;7.77;69.29;100070.83;365259;108;1963945;-71
2021/03/29 00:04:21;;;;;;;9.12;5.23;;;;;;;7.71;68.87;100070.52;362947;108;1962154;-71
2021/03/29 00:05:30;;;;;;;9.38;5.21;;;;;;;7.69;68.83;100069.85;362682;110;1961970;-71
2021/03/29 00:06:38;;;;;;;9.91;5.53;;;;;;;7.61;68.78;100071.77;363690;110;1961974;-71
2021/03/29 00:07:46;;;;;;;8.93;5.39;;;;;;;7.44;69.00;100069.16;363008;110;1961974;-71
2021/03/29 00:08:54;;;;;;;9.49;4.91;;;;;;;7.39;69.23;100062.64;337643;110;2424043;-71
2021/03/29 00:10:03;;;;;;;9.33;5.47;;;;;;;7.33;69.24;100068.70;363365;110;1961935;-71
2021/03/29 00:11:10;;;;;;;9.61;5.82;;;;;;;7.30;69.21;100080.63;364314;110;1962019;-71
2021/03/29 00:12:18;;;;;;;10.67;6.03;;;;;;;7.25;69.48;100075.80;316987;110;2817028;-71
2021/03/29 00:13:26;;;;;;;8.06;5.67;;;;;;;7.18;69.79;100071.30;362885;110;1961935;-71
2021/03/29 00:14:33;;;;;;;9.90;5.52;;;;;;;7.16;69.84;100068.77;304108;110;2235650;-71
2021/03/29 00:15:41;;;;;;;9.56;5.59;;;;;;;7.10;70.04;100082.08;362491;108;1962011;-71
2021/03/29 00:16:47;;;;;;;9.04;5.27;;;;;;;7.02;70.41;100077.56;362481;108;1961943;-71
2021/03/29 00:17:53;;;;;;;7.95;4.34;;;;;;;7.03;69.93;100076.55;363313;110;1962016;-71
2021/03/29 00:19:00;;;;;;;8.19;4.46;;;;;;;6.97;70.42;100080.77;362811;110;1963003;-71
2021/03/29 00:20:15;;;;;;;8.09;4.44;;;;;;;6.94;70.58;100088.34;304365;110;2160912;-71
2021/03/29 00:21:22;;;;;;;7.35;4.39;;;;;;;6.94;70.77;100080.28;335046;110;1961986;-71
2021/03/29 00:22:27;;;;;;;8.34;4.58;;;;;;;6.97;70.55;100078.08;364983;109;1961980;-70
2021/03/29 00:23:33;;;;;;;8.98;4.33;;;;;;;7.04;70.33;100080.92;364827;110;1962936;-71
2021/03/29 00:24:40;;;;;;;7.96;4.38;;;;;;;7.03;70.42;100085.44;367973;107;1961989;-71
2021/03/29 00:25:45;;;;;;;7.48;4.46;;;;;;;7.08;70.26;100078.72;297111;110;2222428;-70
2021/03/29 00:26:53;;;;;;;8.10;4.26;;;;;;;7.13;69.98;100069.12;369800;107;1961948;-72
2021/03/29 00:28:00;;;;;;;6.77;3.71;;;;;;;7.13;69.95;100074.50;368559;107;1961942;-71
2021/03/29 00:29:05;;;;;;;7.87;4.95;;;;;;;7.18;69.87;100079.36;327218;107;2045497;-71
2021/03/29 00:30:14;;;;;;;7.84;4.58;;;;;;;7.23;69.56;100071.62;374176;105;1961931;-71
2021/03/29 00:31:20;;;;;;;8.88;4.96;;;;;;;7.20;69.62;100075.48;336216;105;1996608;-70
2021/03/29 00:32:26;;;;;;;8.47;4.86;;;;;;;7.17;69.63;100083.90;363533;105;1961967;-71
2021/03/29 00:33:33;;;;;;;9.91;5.11;;;;;;;7.13;69.74;100087.10;375101;105;1962964;-72
2021/03/29 00:34:40;;;;;;;8.60;5.04;;;;;;;7.06;69.83;100078.88;351835;105;2334001;-70
2021/03/29 00:35:49;;;;;;;10.60;6.16;;;;;;;7.00;70.21;100084.95;375595;105;1962054;-71
2021/03/29 00:36:55;;;;;;;8.89;4.97;;;;;;;6.97;69.99;100082.62;366891;105;1961947;-71
2021/03/29 00:38:01;;;;;;;9.48;5.86;;;;;;;6.91;70.50;100086.00;374892;105;1962935;-71
2021/03/29 00:39:09;;;;;;;8.36;4.56;;;;;;;6.83;70.71;100090.38;365041;110;1961991;-72
2021/03/29 00:40:17;;;;;;;8.11;5.25;;;;;;;6.84;70.61;100096.58;368032;107;1962025;-71
2021/03/29 00:41:24;;;;;;;9.39;4.61;;;;;;;6.87;70.41;100082.80;341084;110;2364102;-72
2021/03/29 00:42:29;;;;;;;7.45;4.41;;;;;;;6.90;70.55;100095.05;374563;105;1961967;-71
2021/03/29 00:43:41;;;;;;;7.94;4.63;;;;;;;6.94;70.51;100083.80;373860;105;1961888;-71
2021/03/29 00:44:47;;;;;;;9.87;4.94;;;;;;;7.01;70.42;100094.67;365144;110;1961959;-71
2021/03/29 00:45:56;;;;;;;8.50;4.22;;;;;;;7.07;70.20;100098.55;345222;105;2441991;-71
2021/03/29 00:47:03;;;;;;;8.81;4.90;;;;;;;7.06;70.06;100103.05;374164;105;1961944;-71
2021/03/29 00:48:09;;;;;;;8.51;4.66;;;;;;;7.09;70.11;100077.70;333348;105;1961956;-71
2021/03/29 00:49:16;;;;;;;9.78;5.00;;;;;;;7.10;70.02;100099.03;374261;106;1961944;-70
2021/03/29 00:50:49;;;;;;;9.12;4.57;;;;;;;7.11;69.83;100084.58;374731;105;1961958;-71
2021/03/29 00:51:56;;;;;;;9.23;4.88;;;;;;;7.23;69.62;100085.05;374826;105;1962996;-70
2021/03/29 00:53:02;;;;;;;9.88;5.00;;;;;;;7.30;69.35;100087.86;375655;105;1963918;-71
2021/03/29 00:54:09;;;;;;;10.71;5.72;;;;;;;7.31;69.17;100087.70;351102;105;2351989;-71
2021/03/29 00:55:15;;;;;;;8.73;4.93;;;;;;;7.31;69.23;100094.94;375135;105;1962041;-72
2021/03/29 00:56:23;;;;;;;10.04;6.16;;;;;;;7.20;69.33;100088.09;329718;105;2073548;-72
2021/03/29 00:57:29;;;;;;;10.11;5.40;;;;;;;7.12;69.57;100094.33;374218;105;1963948;-71
2021/03/29 00:58:37;;;;;;;9.81;6.04;;;;;;;7.02;69.94;100093.69;376337;105;1962013;-71
2021/03/29 00:59:43;;;;;;;9.99;5.50;;;;;;;7.03;69.56;100092.66;353584;105;1961960;-72
2021/03/29 01:00:57;;;;;;;10.39;6.27;;;;;;;7.00;69.50;100095.70;374332;105;1961934;-71
2021/03/29 01:02:03;;;;;;;10.85;6.97;;;;;;;6.95;69.73;100095.38;374474;105;1962036;-71
2021/03/29 01:03:16;;;;;;;10.29;6.28;;;;;;;6.90;69.93;100100.42;374685;105;1963022;-71
2021/03/29 01:04:21;;;;;;;11.25;6.01;;;;;;;6.82;70.16;100104.79;371037;105;1962168;-71
2021/03/29 01:05:27;;;;;;;10.97;6.00;;;;;;;6.75;70.82;100097.61;374784;105;1962051;-71
2021/03/29 01:06:36;;;;;;;11.15;6.11;;;;;;;6.72;70.54;100105.98;373596;105;1962025;-71
2021/03/29 01:07:45;;;;;;;8.04;4.99;;;;;;;6.68;70.92;100097.44;374021;105;1962005;-72
2021/03/29 01:08:54;;;;;;;8.51;4.93;;;;;;;6.73;70.92;100097.77;370188;105;1964000;-71
2021/03/29 01:10:00;;;;;;;9.48;5.17;;;;;;;6.77;70.98;100111.68;345452;105;2428981;-72
2021/03/29 01:11:07;;;;;;;8.94;5.02;;;;;;;6.86;70.65;100107.16;344787;105;1964985;-70
2021/03/29 01:12:15;;;;;;;8.67;4.74;;;;;;;6.92;70.64;100114.52;373846;105;1962992;-71
2021/03/29 01:13:22;;;;;;;9.59;4.71;;;;;;;6.96;70.46;100107.78;346216;105;1962954;-71
2021/03/29 01:14:40;;;;;;;9.84;5.57;;;;;;;6.98;70.40;100103.08;373228;105;1963971;-71
2021/03/29 01:15:48;;;;;;;8.14;4.55;;;;;;;7.07;70.22;100106.61;373480;105;1962938;-71
2021/03/29 01:17:02;;;;;;;8.49;4.58;;;;;;;7.16;70.07;100106.39;340710;105;1964010;-71
2021/03/29 01:18:11;;;;;;;9.21;4.83;;;;;;;7.09;70.17;100104.56;372941;105;1962028;-72
2021/03/29 01:19:22;;;;;;;9.41;5.35;;;;;;;7.18;69.92;100115.12;374813;105;1962003;-71
2021/03/29 01:20:47;;;;;;;9.24;5.52;;;;;;;7.24;69.81;100117.11;374235;105;1964973;-71
2021/03/29 01:21:57;;;;;;;9.39;5.30;;;;;;;7.30;69.53;100106.67;373143;105;1961975;-71
2021/03/29 01:23:04;;;;;;;11.22;6.08;;;;;;;7.31;69.34;100111.89;374356;105;1961919;-71
2021/03/29 01:24:33;;;;;;;10.82;6.16;;;;;;;7.23;69.32;100117.30;323757;105;2123412;-72
2021/03/29 01:25:45;;;;;;;9.91;5.68;;;;;;;7.19;69.39;100111.41;330002;105;2773967;-71
2021/03/29 01:26:52;;;;;;;8.97;5.56;;;;;;;7.04;69.83;100121.22;373397;106;1961943;-71
2021/03/29 01:28:08;;;;;;;12.21;6.89;;;;;;;6.96;70.09;100118.52;334630;105;2684042;-71
2021/03/29 01:29:16;;;;;;;12.34;6.48;;;;;;;6.87;70.54;100123.08;334496;110;1962058;-72
2021/03/29 01:30:24;;;;;;;9.00;5.54;;;;;;;6.78;70.53;100124.95;370696;107;1963933;-71
2021/03/29 01:31:30;;;;;;;9.23;5.80;;;;;;;6.78;70.66;100116.06;370490;107;1961993;-71
2021/03/29 01:32:38;;;;;;;11.30;5.64;;;;;;;6.80;70.57;100114.89;364111;110;1962028;-71
2021/03/29 01:33:45;;;;;;;10.34;5.34;;;;;;;6.85;70.67;100121.58;337586;107;1963078;-71
2021/03/29 01:34:52;;;;;;;10.93;5.79;;;;;;;6.88;70.65;100123.91;373775;105;1961950;-71
2021/03/29 01:36:01;;;;;;;9.84;5.27;;;;;;;6.93;70.62;100124.23;306652;105;2196812;-71
2021/03/29 01:37:08;;;;;;;11.18;5.83;;;;;;;6.98;70.39;100135.31;373632;105;1961949;-71
2021/03/29 01:38:14;;;;;;;11.30;5.58;;;;;;;6.97;70.41;100122.91;367423;105;1961976;-71
2021/03/29 01:39:22;;;;;;;8.71;5.08;;;;;;;7.02;70.31;100129.44;373206;105;1964994;-71
2021/03/29 01:40:29;;;;;;;9.68;4.96;;;;;;;7.03;70.38;100127.58;351746;105;1962977;-71
2021/03/29 01:41:35;;;;;;;9.36;5.56;;;;;;;7.07;70.21;100123.55;374931;105;1961983;-71
2021/03/29 01:42:42;;;;;;;9.45;5.95;;;;;;;7.11;70.14;100126.72;373490;105;1962023;-71
2021/03/29 01:43:48;;;;;;;9.44;5.28;;;;;;;7.05;70.26;100120.20;332375;105;2682999;-71
2021/03/29 01:44:55;;;;;;;8.30;5.36;;;;;;;7.15;70.11;100125.38;372838;105;1961904;-71
2021/03/29 01:46:00;;;;;;;9.28;5.64;;;;;;;7.19;70.04;100129.38;372981;105;1961990;-71
2021/03/29 01:47:07;;;;;;;10.71;5.11;;;;;;;7.23;69.62;100128.05;374231;105;1962031;-71
2021/03/29 01:48:13;;;;;;;11.51;5.97;;;;;;;7.24;69.56;100125.16;312145;105;2238532;-71
2021/03/29 01:49:20;;;;;;;11.99;6.89;;;;;;;7.29;69.60;100123.82;374216;105;1961952;-71
2021/03/29 01:50:30;;;;;;;11.92;6.08;;;;;;;7.27;69.48;100124.81;376387;105;1961891;-72
2021/03/29 01:51:35;;;;;;;11.66;7.40;;;;;;;7.28;69.51;100131.05;373125;105;1964019;-72
2021/03/29 01:52:42;;;;;;;12.23;6.57;;;;;;;7.22;69.51;100126.34;373312;105;1963926;-72
2021/03/29 01:53:48;;;;;;;12.69;6.93;;;;;;;6.55;69.63;100038.91;322818;107;2097283;-71
2021/03/29 01:54:57;;;;;;;12.06;6.87;;;;;;;7.08;69.97;100135.13;369901;107;1962020;-71
2021/03/29 01:56:03;;;;;;;12.43;7.63;;;;;;;7.02;69.91;100126.75;374795;105;1962009;-71
2021/03/29 01:57:09;;;;;;;14.66;8.96;;;;;;;6.94;70.25;100124.08;374564;105;1961942;-71
2021/03/29 01:58:17;;;;;;;11.08;7.29;;;;;;;6.90;70.48;100127.27;375147;105;1962013;-71
2021/03/29 01:59:22;;;;;;;11.33;6.57;;;;;;;6.83;70.80;100121.77;373843;105;1962077;-71
2021/03/29 02:00:41;;;;;;;9.61;5.76;;;;;;;6.81;70.78;100131.83;374821;105;1960626;-71
2021/03/29 02:01:47;;;;;;;8.85;4.94;;;;;;;6.83;70.75;100137.88;353643;105;1960712;-72
2021/03/29 02:02:53;;;;;;;9.30;5.58;;;;;;;6.89;70.81;100125.61;375639;105;1960650;-71
2021/03/29 02:03:59;;;;;;;10.11;5.71;;;;;;;6.93;70.67;100137.67;376653;105;1960789;-71
2021/03/29 02:05:11;;;;;;;8.86;4.98;;;;;;;6.98;70.69;100130.77;376108;105;1960747;-72
2021/03/29 02:06:17;;;;;;;8.40;4.72;;;;;;;7.02;70.51;100137.49;364915;105;1960832;-71
2021/03/29 02:07:23;;;;;;;8.77;4.71;;;;;;;7.10;70.25;100135.80;375018;105;1960885;-71
2021/03/29 02:08:29;;;;;;;8.87;4.88;;;;;;;7.10;70.26;100142.02;375038;105;1960762;-71
2021/03/29 02:09:37;;;;;;;9.77;6.41;;;;;;;7.03;70.62;100141.02;373895;105;1962919;-71
2021/03/29 02:10:45;;;;;;;8.34;4.64;;;;;;;7.00;70.52;100139.50;374404;105;1963097;-72
2021/03/29 02:11:50;;;;;;;8.68;5.06;;;;;;;7.10;70.44;100147.38;375014;105;1961938;-71
2021/03/29 02:13:03;;;;;;;8.87;5.19;;;;;;;7.08;70.47;100135.13;333206;105;2645008;-71
2021/03/29 02:14:08;;;;;;;10.27;4.57;;;;;;;7.16;70.34;100137.80;362973;110;1961899;-71
2021/03/29 02:15:17;;;;;;;8.89;4.92;;;;;;;7.15;70.29;100138.81;373268;105;1961961;-71
2021/03/29 02:16:27;;;;;;;8.59;4.72;;;;;;;7.21;70.17;100138.95;365175;110;1962050;-71
2021/03/29 02:17:33;;;;;;;7.96;4.36;;;;;;;7.26;69.84;100144.65;368553;107;1962001;-71
2021/03/29 02:18:41;;;;;;;9.27;5.12;;;;;;;7.31;69.72;100141.45;373112;105;1961984;-71
2021/03/29 02:19:47;;;;;;;10.94;5.34;;;;;;;7.37;69.51;100137.23;373009;105;1961980;-71
2021/03/29 02:20:56;;;;;;;10.08;5.85;;;;;;;7.37;69.43;100139.91;373775;105;1962928;-72
2021/03/29 02:22:03;;;;;;;7.85;4.54;;;;;;;7.26;69.51;100143.81;371424;105;1967001;-71
2021/03/29 02:23:10;;;;;;;9.83;5.19;;;;;;;7.17;69.72;100147.52;363653;110;1962016;-71
2021/03/29 02:24:16;;;;;;;9.48;5.14;;;;;;;7.02;70.21;100142.03;337243;111;1961949;-71
2021/03/29 02:25:25;;;;;;;9.22;5.44;;;;;;;6.94;70.48;100160.85;362328;111;1963975;-72
2021/03/29 02:26:34;;;;;;;8.03;4.63;;;;;;;6.81;71.09;100150.62;331008;111;1961978;-71
2021/03/29 02:27:41;;;;;;;8.19;4.47;;;;;;;6.75;71.27;100148.63;360531;111;1964016;-71
2021/03/29 02:28:48;;;;;;;9.50;4.65;;;;;;;6.75;71.32;100146.77;363682;109;1963999;-71
2021/03/29 02:29:54;;;;;;;8.36;3.98;;;;;;;6.75;71.52;100145.94;363349;109;1962046;-70
2021/03/29 02:31:01;;;;;;;7.92;4.07;;;;;;;6.77;71.51;100149.27;342610;109;2286961;-71
2021/03/29 02:32:07;;;;;;;9.37;4.82;;;;;;;6.81;71.36;100154.14;363817;109;1961995;-71
2021/03/29 02:33:14;;;;;;;8.52;4.49;;;;;;;6.89;71.20;100149.78;363104;109;1962018;-71
2021/03/29 02:34:22;;;;;;;7.33;4.30;;;;;;;6.96;70.92;100145.37;336544;109;2408923;-72
2021/03/29 02:35:27;;;;;;;8.12;4.14;;;;;;;7.04;70.59;100148.08;357577;113;1961914;-71
2021/03/29 02:36:35;;;;;;;7.99;4.75;;;;;;;7.07;70.57;100154.95;367199;108;1961818;-72
2021/03/29 02:37:49;;;;;;;9.85;5.41;;;;;;;7.08;70.42;100144.02;351383;107;1961969;-70
2021/03/29 02:38:57;;;;;;;8.11;4.50;;;;;;;7.10;70.41;100147.38;330937;107;2652964;-72
2021/03/29 02:40:06;;;;;;;7.46;4.66;;;;;;;7.08;70.50;100144.02;370985;107;1961947;-72
2021/03/29 02:41:12;;;;;;;7.29;4.56;;;;;;;7.13;70.40;100154.27;371677;107;1962061;-71
2021/03/29 02:42:17;;;;;;;8.34;4.38;;;;;;;7.19;70.31;100154.39;360592;111;1962012;-72
2021/03/29 02:43:23;;;;;;;6.77;3.70;;;;;;;7.22;70.03;100154.08;361970;111;1962004;-71
2021/03/29 02:44:31;;;;;;;7.83;4.00;;;;;;;7.22;69.95;100151.39;342604;111;2265007;-71
2021/03/29 02:45:42;;;;;;;7.00;4.17;;;;;;;7.24;69.93;100159.27;360925;111;1961941;-71
2021/03/29 02:46:49;;;;;;;8.34;4.91;;;;;;;7.26;69.92;100160.77;360161;111;1961994;-71
2021/03/29 02:47:58;;;;;;;8.85;4.48;;;;;;;7.27;69.75;100159.75;314603;111;2812934;-71
2021/03/29 02:49:06;;;;;;;9.06;5.19;;;;;;;7.20;69.70;100157.95;361097;111;1964107;-71
2021/03/29 02:50:20;;;;;;;8.68;5.18;;;;;;;7.13;69.91;100165.84;361577;111;1961962;-71
2021/03/29 02:51:27;;;;;;;9.34;6.18;;;;;;;6.99;70.24;100166.55;362806;111;1961996;-71
2021/03/29 02:52:34;;;;;;;9.76;5.17;;;;;;;6.80;71.02;100168.59;360456;111;1961920;-71
2021/03/29 02:53:49;;;;;;;9.61;5.41;;;;;;;6.72;71.32;100170.42;363538;111;1961961;-71
2021/03/29 02:54:56;;;;;;;9.56;5.22;;;;;;;6.66;71.56;100168.41;338747;109;1962002;-71
2021/03/29 02:56:05;;;;;;;7.78;4.40;;;;;;;6.65;71.64;100166.75;360111;111;1961856;-71
2021/03/29 02:57:10;;;;;;;10.03;4.59;;;;;;;6.70;71.47;100175.97;346408;111;1962063;-71
2021/03/29 02:58:19;;;;;;;8.74;4.50;;;;;;;6.70;71.72;100173.29;363707;109;1961967;-71
2021/03/29 02:59:27;;;;;;;8.67;4.96;;;;;;;6.76;71.41;100169.92;362980;109;1961939;-72
2021/03/29 03:00:36;;;;;;;9.13;4.94;;;;;;;6.77;71.50;100166.25;306963;109;2119349;-72
2021/03/29 03:01:42;;;;;;;8.54;4.30;;;;;;;6.85;71.25;100177.97;363366;109;1962062;-71
2021/03/29 03:02:49;;;;;;;7.56;3.93;;;;;;;6.87;71.09;100168.73;363563;109;1961940;-71
2021/03/29 03:03:55;;;;;;;9.04;4.50;;;;;;;6.86;71.28;100179.66;363794;109;1962014;-71
2021/03/29 03:05:03;;;;;;;8.41;4.54;;;;;;;6.93;70.94;100168.08;364091;109;1962960;-71
2021/03/29 03:06:11;;;;;;;7.49;4.24;;;;;;;6.94;70.96;100177.80;364005;109;1962003;-71
2021/03/29 03:07:18;;;;;;;8.04;3.66;;;;;;;6.89;71.06;100173.95;362584;109;1961944;-72
2021/03/29 03:08:24;;;;;;;7.53;3.81;;;;;;;6.93;71.00;100172.58;316966;109;2773057;-71
2021/03/29 03:09:30;;;;;;;7.33;3.93;;;;;;;6.91;70.97;100174.62;343511;111;1961889;-72
2021/03/29 03:10:39;;;;;;;8.62;4.36;;;;;;;6.95;70.81;100171.41;360343;111;1961962;-71
2021/03/29 03:11:45;;;;;;;7.04;4.11;;;;;;;6.93;70.80;100189.56;341270;109;1962834;-71
2021/03/29 03:12:51;;;;;;;8.82;4.36;;;;;;;6.89;71.14;100182.84;362412;111;1962058;-71
2021/03/29 03:13:58;;;;;;;9.57;4.47;;;;;;;6.96;70.83;100182.98;361243;111;1962920;-72
2021/03/29 03:15:07;;;;;;;7.44;4.10;;;;;;;6.95;70.88;100181.31;312039;111;2861946;-71
2021/03/29 03:16:13;;;;;;;8.61;4.52;;;;;;;6.96;70.75;100178.47;364073;109;1962005;-72
2021/03/29 03:17:19;;;;;;;6.86;3.85;;;;;;;7.01;70.55;100180.63;327242;109;2616049;-71
2021/03/29 03:18:24;;;;;;;10.18;4.45;;;;;;;6.99;70.69;100188.04;330059;109;1961983;-70
2021/03/29 03:19:29;;;;;;;10.04;4.58;;;;;;;6.88;71.15;100182.99;336016;111;1961979;-71
2021/03/29 03:20:37;;;;;;;8.57;4.17;;;;;;;7.00;70.79;100187.02;359991;111;1962003;-71
2021/03/29 03:21:43;;;;;;;9.02;4.49;;;;;;;6.99;70.65;100186.19;360801;111;1963000;-71
2021/03/29 03:22:55;;;;;;;9.17;3.88;;;;;;;7.00;70.73;100195.91;312729;111;2846013;-71
2021/03/29 03:24:01;;;;;;;8.09;4.04;;;;;;;7.04;70.55;100189.20;361639;111;1961984;-71
2021/03/29 03:25:26;;;;;;;10.23;4.77;;;;;;;7.07;70.52;100192.56;361905;111;1961991;-71
2021/03/29 03:26:32;;;;;;;9.03;4.84;;;;;;;7.11;70.21;100189.34;363103;111;1961988;-72
2021/03/29 03:27:38;;;;;;;7.81;4.51;;;;;;;7.14;70.06;100189.00;361715;111;1962939;-73
2021/03/29 03:28:44;;;;;;;9.45;4.74;;;;;;;7.15;70.00;100193.37;312649;111;2848663;-71
2021/03/29 03:29:50;;;;;;;8.65;4.87;;;;;;;7.12;70.07;100199.10;340206;109;1962976;-71
2021/03/29 03:30:58;;;;;;;9.37;5.04;;;;;;;7.07;70.10;100196.09;362679;109;1963999;-71
2021/03/29 03:32:05;;;;;;;11.12;5.90;;;;;;;7.05;70.11;100198.93;337561;109;2898030;-71
2021/03/29 03:33:12;;;;;;;9.82;5.24;;;;;;;7.08;69.95;100203.13;364642;109;1963032;-71
2021/03/29 03:34:18;;;;;;;9.73;5.08;;;;;;;7.09;70.01;100196.73;364524;109;1962047;-71
2021/03/29 03:35:26;;;;;;;10.68;5.49;;;;;;;7.05;70.08;100209.67;354562;109;2943992;-71
2021/03/29 03:36:35;;;;;;;10.37;5.26;;;;;;;6.94;70.16;100191.23;362976;109;1961999;-71
2021/03/29 03:37:43;;;;;;;9.26;5.05;;;;;;;7.02;70.16;100203.81;364660;109;1962021;-72
2021/03/29 03:38:51;;;;;;;9.66;5.14;;;;;;;7.03;69.98;100200.11;330062;111;2519046;-72
2021/03/29 03:39:56;;;;;;;10.53;6.14;;;;;;;7.00;70.23;100211.19;355172;113;1961976;-71
2021/03/29 03:41:08;;;;;;;10.02;5.37;;;;;;;6.99;70.23;100209.53;364893;108;1961962;-72
2021/03/29 03:42:15;;;;;;;;;;;;;;;7.01;70.20;100208.35;308128;108;2137698;-71
2021/03/29 03:43:23;;;;;;;9.86;5.12;;;;;;;6.99;70.19;100209.53;367446;108;1960980;-71
2021/03/29 03:44:30;;;;;;;12.07;5.68;;;;;;;7.01;70.12;100205.66;349903;107;1961974;-71
2021/03/29 03:45:49;;;;;;;10.11;5.30;;;;;;;7.05;70.08;100206.98;370250;107;1962028;-72
2021/03/29 03:46:55;;;;;;;11.96;6.18;;;;;;;7.08;69.98;100203.13;338293;107;1962032;-72
2021/03/29 03:48:01;;;;;;;10.71;5.71;;;;;;;7.06;69.79;100205.13;369836;107;1962023;-72
2021/03/29 03:49:13;;;;;;;11.30;6.01;;;;;;;7.02;69.93;100204.64;371718;107;1965023;-71
2021/03/29 03:50:19;;;;;;;;;;;;;;;7.03;69.80;100209.00;343602;107;1962888;-72
2021/03/29 03:51:26;;;;;;;10.48;5.54;;;;;;;6.98;69.95;100216.72;370734;107;1961030;-73
2021/03/29 03:52:33;;;;;;;10.53;5.52;;;;;;;6.94;69.75;100211.88;370245;107;1961968;-72
2021/03/29 03:53:40;;;;;;;12.84;6.53;;;;;;;6.79;70.36;100212.54;370624;107;1962948;-71
2021/03/29 03:54:47;;;;;;;11.56;6.29;;;;;;;6.71;70.58;100214.39;370701;107;1962028;-71
2021/03/29 03:55:56;;;;;;;10.36;6.16;;;;;;;6.63;70.91;100211.70;320206;107;2827955;-72
2021/03/29 03:57:02;;;;;;;11.12;5.83;;;;;;;6.52;71.56;100216.39;370935;107;1962096;-71
2021/03/29 03:58:11;;;;;;;12.15;6.08;;;;;;;6.53;71.34;100215.38;341343;107;2456987;-70
2021/03/29 03:59:18;;;;;;;10.67;5.38;;;;;;;6.54;71.51;100219.75;336574;107;2883958;-71
2021/03/29 04:00:25;;;;;;;10.44;5.45;;;;;;;6.60;71.39;100223.62;370340;107;1961995;-72
2021/03/29 04:01:35;;;;;;;9.08;4.70;;;;;;;6.62;71.46;100226.98;369480;107;1962052;-72
2021/03/29 04:02:41;;;;;;;9.05;5.17;;;;;;;6.71;70.97;100228.65;370897;107;1962061;-73
2021/03/29 04:03:48;;;;;;;10.33;5.45;;;;;;;6.72;71.10;100229.48;369944;107;1962061;-72
2021/03/29 04:04:54;;;;;;;12.32;6.13;;;;;;;6.77;70.79;100222.63;339283;107;1962951;-72
2021/03/29 04:06:00;;;;;;;10.86;5.94;;;;;;;6.67;71.27;100227.32;370637;107;1962021;-72
2021/03/29 04:07:08;;;;;;;11.26;5.30;;;;;;;6.76;70.95;100223.62;332602;111;2435972;-72
2021/03/29 04:08:13;;;;;;;12.24;6.05;;;;;;;6.76;70.82;100220.10;349911;111;1961987;-72
2021/03/29 04:09:22;;;;;;;10.83;6.21;;;;;;;6.78;70.89;100221.61;360031;111;1962034;-71
2021/03/29 04:10:43;;;;;;;10.11;5.68;;;;;;;6.80;70.79;100219.61;325184;111;2603955;-72
2021/03/29 04:11:51;;;;;;;10.87;5.39;;;;;;;6.77;70.91;100224.45;320249;111;2683008;-71
2021/03/29 04:12:57;;;;;;;10.35;5.27;;;;;;;6.82;70.74;100224.79;360802;111;1962063;-71
2021/03/29 04:14:04;;;;;;;12.41;5.52;;;;;;;6.81;70.72;100226.64;291383;111;2243984;-72
2021/03/29 04:15:10;;;;;;;11.04;5.59;;;;;;;6.83;70.60;100231.86;361962;109;1961923;-72
2021/03/29 04:16:16;;;;;;;12.07;5.73;;;;;;;6.88;70.68;100224.14;360525;111;1961993;-71
2021/03/29 04:17:23;;;;;;;11.93;6.35;;;;;;;6.93;70.53;100224.48;327243;111;2885941;-72
2021/03/29 04:18:28;;;;;;;10.23;5.01;;;;;;;6.97;70.30;100227.66;325984;111;1962035;-71
2021/03/29 04:19:34;;;;;;;12.42;5.81;;;;;;;7.01;70.08;100231.66;361661;111;1962070;-72
2021/03/29 04:20:41;;;;;;;11.47;5.95;;;;;;;7.03;69.92;100227.80;363693;109;1962021;-71
2021/03/29 04:21:46;;;;;;;11.43;6.12;;;;;;;7.01;70.01;100227.16;363027;109;1961943;-71
2021/03/29 04:22:52;;;;;;;10.41;5.93;;;;;;;7.07;70.01;100222.11;318392;109;2771856;-72
2021/03/29 04:23:58;;;;;;;10.47;5.27;;;;;;;7.05;69.96;100227.64;334284;109;1962987;-71
2021/03/29 04:25:08;;;;;;;11.10;5.68;;;;;;;7.09;69.76;100231.66;345256;109;1961052;-71
2021/03/29 04:26:16;;;;;;;10.99;5.98;;;;;;;7.06;69.69;100232.00;363194;109;1961962;-72
2021/03/29 04:27:22;;;;;;;12.84;6.85;;;;;;;7.05;69.72;100227.64;316170;109;2823919;-72
2021/03/29 04:28:27;;;;;;;13.19;7.51;;;;;;;7.00;69.78;100225.45;343192;109;1961996;-73
2021/03/29 04:29:32;;;;;;;11.73;6.92;;;;;;;7.01;69.99;100237.03;364111;109;1961952;-72
2021/03/29 04:30:41;;;;;;;12.76;7.27;;;;;;;6.96;69.90;100229.50;361766;111;1962023;-72
2021/03/29 04:31:46;;;;;;;12.60;7.64;;;;;;;6.90;69.87;100232.84;302241;111;2230856;-72
2021/03/29 04:32:53;;;;;;;13.71;7.22;;;;;;;6.83;70.11;100238.06;352280;109;1961913;-72
2021/03/29 04:33:58;;;;;;;14.11;7.24;;;;;;;6.76;70.19;100242.41;363790;109;1961864;-72
2021/03/29 04:35:05;;;;;;;13.03;7.45;;;;;;;6.69;70.22;100240.56;364129;109;1963003;-72
2021/03/29 04:36:11;;;;;;;11.60;6.81;;;;;;;6.64;70.80;100243.73;310267;109;2240960;-72
2021/03/29 04:37:16;;;;;;;10.85;6.15;;;;;;;6.66;70.75;100244.41;334539;109;1962995;-72
2021/03/29 04:38:21;;;;;;;14.00;7.45;;;;;;;6.69;70.75;100244.08;362367;109;1961875;-73
2021/03/29 04:39:28;;;;;;;14.19;6.33;;;;;;;6.77;70.78;100251.30;362604;109;1961989;-72
2021/03/29 04:40:34;;;;;;;13.58;7.19;;;;;;;6.80;70.57;100249.14;363916;109;1963075;-72
2021/03/29 04:41:40;;;;;;;13.32;7.87;;;;;;;6.90;70.33;100242.75;363356;109;1961965;-71
2021/03/29 04:42:46;;;;;;;14.30;7.82;;;;;;;6.89;70.33;100255.34;314560;109;2828940;-72
2021/03/29 04:43:51;;;;;;;12.95;8.07;;;;;;;6.91;70.22;100247.97;344963;111;1963998;-72
2021/03/29 04:44:56;;;;;;;13.07;7.17;;;;;;;6.91;70.00;100249.82;360923;111;1962010;-71
2021/03/29 04:46:02;;;;;;;15.22;8.93;;;;;;;6.96;69.75;100250.13;360696;109;1961962;-72
2021/03/29 04:47:07;;;;;;;15.46;8.49;;;;;;;6.97;69.87;100238.40;360538;111;1963062;-72
2021/03/29 04:48:12;;;;;;;16.74;9.79;;;;;;;7.01;69.67;100243.27;361515;111;1961952;-72
2021/03/29 04:49:17;;;;;;;14.33;8.15;;;;;;;7.09;69.66;100239.71;360837;111;1961968;-72
2021/03/29 04:50:24;;;;;;;15.97;9.11;;;;;;;7.10;69.49;100244.09;363454;109;1963026;-72
2021/03/29 04:51:30;;;;;;;15.19;9.34;;;;;;;7.05;69.55;100246.45;329201;109;1963937;-72
2021/03/29 04:52:35;;;;;;;17.05;9.92;;;;;;;7.01;69.49;100247.78;354780;109;1962043;-72
2021/03/29 04:53:41;;;;;;;15.02;9.46;;;;;;;6.91;69.61;100249.82;363190;109;1962013;-73
2021/03/29 04:54:46;;;;;;;18.97;11.29;;;;;;;6.88;69.51;100258.19;362236;109;1961884;-72
2021/03/29 04:55:51;;;;;;;17.41;10.73;;;;;;;6.78;69.73;100256.52;363905;109;1963026;-71
2021/03/29 04:56:57;;;;;;;18.17;11.59;;;;;;;6.73;69.82;100244.61;363243;109;1962960;-72
2021/03/29 04:58:03;;;;;;;17.06;10.31;;;;;;;6.64;70.30;100251.79;335079;109;2489057;-72
2021/03/29 04:59:08;;;;;;;17.37;9.87;;;;;;;6.60;70.34;100250.46;341632;109;1961925;-71
2021/03/29 05:00:15;;;;;;;14.56;8.57;;;;;;;6.59;70.33;100257.68;363058;109;1961938;-72
2021/03/29 05:01:20;;;;;;;18.95;9.37;;;;;;;6.58;70.71;100253.30;361094;111;1964006;-71
2021/03/29 05:02:25;;;;;;;16.08;8.98;;;;;;;6.62;70.64;100255.67;361299;109;1962049;-72
2021/03/29 05:03:31;;;;;;;17.88;9.17;;;;;;;6.66;70.54;100257.00;362113;109;1962006;-71
2021/03/29 05:04:37;;;;;;;15.81;9.27;;;;;;;6.74;70.48;100257.02;363204;109;1961952;-72
2021/03/29 05:05:43;;;;;;;18.68;9.81;;;;;;;6.82;70.48;100263.22;314943;111;2788050;-71
2021/03/29 05:06:48;;;;;;;17.00;9.87;;;;;;;6.94;70.19;100261.06;336049;111;1961966;-71
2021/03/29 05:07:53;;;;;;;18.48;9.53;;;;;;;7.05;69.97;100259.88;351926;111;1961965;-72
2021/03/29 05:08:59;;;;;;;14.85;9.14;;;;;;;6.57;69.46;100172.95;359915;111;1962023;-72
2021/03/29 05:10:09;;;;;;;17.09;10.21;;;;;;;7.20;69.04;100266.25;357435;113;1963896;-71